Swea City, Iowa
Current Conditions -  °F | °C
As of 10:35 PM on Wednesday 28 Jan 2015 (Local Time) from KFRM Reporting Station
Overcast Overcast  
Wind Chill: -5°   Ceiling: 500
Heat Index:   Visibility: 3mi
Dew Point: -2°   Wind: 17mph
Humidity: 81%   Direction: 340°NNW
Pressure: 29.82"   Gusts: NA
Location:  43.38°N, 94.31°W
Report Text: KFRM 290435Z AUTO 34015KT 3SM BKN005 OVC015 01/M02 A2982 RMK AO1
Loading
Personal Weather Stations






























Interactive Weather Map New forecast layout! Learn more

10-Day Weather Forecast

Advertisements
Track Severe Weather on mobile